createdAt,value
2022-10-22T00:02:08.234Z,973.07
2022-10-22T00:08:33.396Z,973.02
2022-10-22T00:15:16.231Z,972.96
2022-10-22T00:21:45.986Z,973.01
2022-10-22T00:28:08.260Z,973.15
2022-10-22T00:34:40.646Z,973.29
2022-10-22T00:41:06.243Z,973.32
2022-10-22T00:47:49.872Z,973.45
2022-10-22T00:54:30.487Z,973.51
2022-10-22T01:01:02.896Z,973.56
2022-10-22T01:07:42.710Z,973.62
2022-10-22T01:14:40.249Z,973.7
2022-10-22T01:21:42.594Z,973.56
2022-10-22T01:28:51.597Z,973.53
2022-10-22T01:35:43.228Z,973.5
2022-10-22T01:42:23.202Z,973.58
2022-10-22T01:49:27.308Z,973.54
2022-10-22T01:56:29.473Z,973.48
2022-10-22T02:03:38.462Z,973.39
2022-10-22T02:10:37.690Z,973.48
2022-10-22T02:17:23.212Z,973.47
2022-10-22T02:24:06.662Z,973.09
2022-10-22T02:31:06.362Z,973.3
2022-10-22T02:37:58.624Z,973.45
2022-10-22T02:44:48.295Z,973.49
2022-10-22T02:51:21.253Z,973.57
2022-10-22T02:57:46.512Z,973.66
2022-10-22T03:04:10.865Z,973.66
2022-10-22T03:10:38.302Z,973.72
2022-10-22T03:17:10.202Z,973.86
2022-10-22T03:23:39.677Z,973.92
2022-10-22T03:30:18.286Z,973.95
2022-10-22T03:36:47.385Z,973.95
2022-10-22T03:43:28.334Z,973.91
2022-10-22T03:50:01.439Z,973.93
2022-10-22T03:56:37.693Z,974.08
2022-10-22T04:03:08.349Z,974.24
2022-10-22T04:09:34.354Z,974.29
2022-10-22T04:16:01.465Z,974.34
2022-10-22T04:22:36.344Z,974.37
2022-10-22T04:29:15.046Z,974.47
2022-10-22T04:35:57.993Z,974.48
2022-10-22T04:42:28.341Z,974.47
2022-10-22T04:48:52.383Z,974.54
2022-10-22T04:55:23.327Z,974.62
2022-10-22T05:02:05.366Z,974.72
2022-10-22T05:08:34.960Z,974.76
2022-10-22T05:15:05.321Z,974.8
2022-10-22T05:21:35.807Z,974.89
2022-10-22T05:28:05.591Z,974.97
2022-10-22T05:34:42.483Z,975.02
2022-10-22T05:41:15.519Z,975.07
2022-10-22T05:47:44.592Z,975.02
2022-10-22T05:54:32.578Z,975.12
2022-10-22T06:00:58.502Z,975.17
2022-10-22T06:07:36.613Z,975.29
2022-10-22T06:14:09.601Z,975.36
2022-10-22T06:20:50.039Z,975.46
2022-10-22T06:27:17.219Z,975.49
2022-10-22T06:33:43.920Z,975.6
2022-10-22T06:40:16.591Z,975.66
2022-10-22T06:46:56.622Z,975.73
2022-10-22T06:53:25.959Z,975.84
2022-10-22T07:00:01.728Z,976.01
2022-10-22T07:06:41.644Z,976.05
2022-10-22T07:13:14.741Z,976.12
2022-10-22T07:19:56.934Z,976.34
2022-10-22T07:26:27.488Z,976.46
2022-10-22T07:33:04.825Z,976.46
2022-10-22T07:39:39.513Z,976.58
2022-10-22T07:46:16.235Z,976.63
2022-10-22T07:52:45.386Z,976.69
2022-10-22T07:59:17.360Z,976.66
2022-10-22T08:05:47.946Z,976.79
2022-10-22T08:12:15.292Z,976.86
2022-10-22T08:18:42.890Z,976.81
2022-10-22T08:25:10.995Z,976.89
2022-10-22T08:31:40.218Z,976.87
2022-10-22T08:38:02.656Z,976.95
2022-10-22T08:44:55.965Z,977.06
2022-10-22T08:51:42.959Z,977.17
2022-10-22T08:58:34.756Z,977.26
2022-10-22T09:05:43.845Z,977.43
2022-10-22T09:12:29.076Z,977.44
2022-10-22T09:19:15.846Z,977.49
2022-10-22T09:26:19.717Z,977.51
2022-10-22T09:32:53.930Z,977.49
2022-10-22T09:39:48.718Z,977.52
2022-10-22T09:46:23.614Z,977.49
2022-10-22T09:53:17.383Z,977.59
2022-10-22T10:00:08.737Z,977.58
2022-10-22T10:06:55.147Z,977.67
2022-10-22T10:13:48.734Z,977.69
2022-10-22T10:20:53.127Z,977.67
2022-10-22T10:28:06.674Z,977.73
2022-10-22T10:35:08.017Z,977.71
2022-10-22T10:42:18.818Z,977.79
2022-10-22T10:49:31.702Z,977.76
2022-10-22T10:56:40.317Z,977.66
2022-10-22T11:03:44.416Z,977.64
2022-10-22T11:10:52.836Z,977.6
2022-10-22T11:18:07.557Z,977.52
2022-10-22T11:25:24.762Z,977.41
2022-10-22T11:32:45.340Z,977.38
2022-10-22T11:39:43.067Z,977.41
2022-10-22T11:46:58.421Z,977.38
2022-10-22T11:54:03.343Z,977.31
2022-10-22T12:00:55.660Z,977.28
2022-10-22T12:08:16.139Z,977.3
2022-10-22T12:15:16.816Z,977.35
2022-10-22T12:22:26.288Z,977.35
2022-10-22T12:29:22.093Z,977.35
2022-10-22T12:36:11.631Z,977.3
2022-10-22T12:42:57.728Z,977.31
2022-10-22T12:49:40.025Z,977.28
2022-10-22T12:56:30.881Z,977.3
2022-10-22T13:03:16.799Z,977.33
2022-10-22T13:10:15.590Z,977.32
2022-10-22T13:17:04.115Z,977.3
2022-10-22T13:23:52.461Z,977.28
2022-10-22T13:30:53.944Z,977.26
2022-10-22T13:37:36.840Z,977.19
2022-10-22T13:44:13.794Z,977.2
2022-10-22T13:50:51.943Z,977.22
2022-10-22T13:57:33.565Z,977.24
2022-10-22T14:04:12.858Z,977.25
2022-10-22T14:11:02.207Z,977.33
2022-10-22T14:17:37.907Z,977.35
2022-10-22T14:24:33.563Z,977.32
2022-10-22T14:31:09.643Z,977.29
2022-10-22T14:37:58.099Z,977.26
2022-10-22T14:44:43.183Z,977.25
2022-10-22T14:51:17.700Z,977.17
2022-10-22T14:57:53.945Z,977.11
2022-10-22T15:04:26.645Z,977.14
2022-10-22T15:11:01.190Z,977.12
2022-10-22T15:17:43.161Z,977.13
2022-10-22T15:24:11.844Z,977.19
2022-10-22T15:30:45.756Z,977.15
2022-10-22T15:37:34.259Z,977.21
2022-10-22T15:44:17.252Z,977.21
2022-10-22T15:51:02.069Z,977.18
2022-10-22T15:57:36.050Z,977.22
2022-10-22T16:04:12.902Z,977.31
2022-10-22T16:10:48.425Z,977.26
2022-10-22T16:17:22.546Z,977.28
2022-10-22T16:23:55.594Z,977.24
2022-10-22T16:30:32.945Z,977.32
2022-10-22T16:37:03.827Z,977.36
2022-10-22T16:43:41.322Z,977.37
2022-10-22T16:50:06.961Z,977.48
2022-10-22T16:56:40.424Z,977.48
2022-10-22T17:03:28.985Z,977.5
2022-10-22T17:09:55.939Z,977.53
2022-10-22T17:16:36.942Z,977.63
2022-10-22T17:23:14.179Z,977.74
2022-10-22T17:29:57.140Z,977.84
2022-10-22T17:36:36.965Z,977.76
2022-10-22T17:43:12.360Z,977.77
2022-10-22T17:49:41.939Z,977.84
2022-10-22T17:56:15.374Z,977.89
2022-10-22T18:02:52.352Z,977.91
2022-10-22T18:09:26.831Z,977.86
2022-10-22T18:16:01.021Z,977.79
2022-10-22T18:22:31.003Z,977.83
2022-10-22T18:29:00.217Z,977.87
2022-10-22T18:35:40.554Z,977.84
2022-10-22T18:42:35.459Z,977.8
2022-10-22T18:49:23.501Z,977.83
2022-10-22T18:56:01.389Z,977.88
2022-10-22T19:02:36.975Z,977.94
2022-10-22T19:09:08.156Z,977.84
2022-10-22T19:15:54.089Z,977.8
2022-10-22T19:22:29.952Z,977.78
2022-10-22T19:29:11.533Z,977.78
2022-10-22T19:35:46.979Z,977.72
2022-10-22T19:42:27.065Z,977.79
2022-10-22T19:49:05.038Z,977.81
2022-10-22T19:55:34.480Z,977.72
2022-10-22T20:02:08.576Z,977.78
2022-10-22T20:08:57.036Z,977.78
2022-10-22T20:15:30.037Z,977.81
2022-10-22T20:22:19.158Z,977.78
2022-10-22T20:28:46.380Z,977.83
2022-10-22T20:35:23.648Z,977.88
2022-10-22T20:41:54.106Z,977.84
2022-10-22T20:48:29.417Z,977.81
2022-10-22T20:55:03.370Z,977.72
2022-10-22T21:01:30.208Z,977.77
2022-10-22T21:07:57.034Z,977.86
2022-10-22T21:14:34.408Z,977.89
2022-10-22T21:21:16.559Z,977.87
2022-10-22T21:27:50.873Z,977.84
2022-10-22T21:34:22.984Z,977.91
2022-10-22T21:41:03.121Z,977.87
2022-10-22T21:47:45.653Z,977.82
2022-10-22T21:54:13.456Z,977.7
2022-10-22T22:00:42.990Z,977.78
2022-10-22T22:07:16.221Z,977.71
2022-10-22T22:13:42.051Z,977.65
2022-10-22T22:20:09.930Z,977.63
2022-10-22T22:26:46.840Z,977.67
2022-10-22T22:33:21.431Z,977.62
2022-10-22T22:40:00.517Z,977.52
2022-10-22T22:46:23.223Z,977.5
2022-10-22T22:52:48.528Z,977.5
2022-10-22T22:59:16.039Z,977.56
2022-10-22T23:05:54.003Z,977.57
2022-10-22T23:12:25.102Z,977.59
2022-10-22T23:18:49.495Z,977.57
2022-10-22T23:25:15.981Z,977.6
2022-10-22T23:31:50.130Z,977.58
2022-10-22T23:38:16.108Z,977.53
2022-10-22T23:44:45.826Z,977.29
2022-10-22T23:51:19.094Z,977.21
2022-10-22T23:57:43.357Z,977.18
